Time;durP1;ratioP1;P1;durP2;ratioP2;P2;SDS_P1;SDS_P2;PMS_P1;PMS_P2;Temp;Humidity;BMP_temperature;BMP_pressure;BME280_temperature;BME280_humidity;BME280_pressure;Samples;Min_cycle;Max_cycle;Signal;HPM_P1;HPM_P2
2022/02/14 00:01:53;;;;;;;12.60;5.30;;;;;;;-4.15;89.82;95134.69;4993703;28;20053;-73
2022/02/14 00:04:19;;;;;;;13.43;5.30;;;;;;;-3.77;87.74;95121.47;5004467;28;20053;-74
2022/02/14 00:06:45;;;;;;;14.80;5.28;;;;;;;-3.94;87.42;95120.19;4992958;28;20496;-74
2022/02/14 00:09:11;;;;;;;13.30;4.80;;;;;;;-3.78;87.80;95114.75;4992607;28;20030;-74
2022/02/14 00:11:36;;;;;;;13.52;4.63;;;;;;;-3.61;86.27;95110.09;4989376;28;20501;-73
2022/02/14 00:14:02;;;;;;;9.27;4.63;;;;;;;-3.61;86.00;95114.44;5007488;28;20059;-73
2022/02/14 00:16:28;;;;;;;12.88;4.70;;;;;;;-3.98;87.81;95103.56;4989031;28;20047;-74
2022/02/14 00:18:53;;;;;;;10.90;4.55;;;;;;;-4.10;89.22;95111.00;4991529;28;20063;-73
2022/02/14 00:21:19;;;;;;;11.23;5.07;;;;;;;-4.26;89.96;95110.28;4999077;28;20057;-74
2022/02/14 00:23:44;;;;;;;8.73;4.10;;;;;;;-4.24;90.28;95104.97;5001400;28;20496;-74
2022/02/14 00:26:10;;;;;;;9.85;4.82;;;;;;;-4.24;89.08;95099.81;4990124;28;20412;-74
2022/02/14 00:28:35;;;;;;;9.75;4.75;;;;;;;-4.16;88.46;95102.25;4989364;28;20666;-74
2022/02/14 00:31:01;;;;;;;12.88;4.95;;;;;;;-4.15;89.83;95103.84;5000663;28;20048;-74
2022/02/14 00:33:28;;;;;;;9.70;4.03;;;;;;;-3.88;87.22;95101.44;4998871;28;20070;-74
2022/02/14 00:35:53;;;;;;;9.65;4.30;;;;;;;-3.87;86.93;95101.25;4995509;28;20038;-74
2022/02/14 00:38:20;;;;;;;9.82;4.25;;;;;;;-3.87;86.69;95100.47;5000285;28;20420;-73
2022/02/14 00:40:46;;;;;;;11.00;4.47;;;;;;;-3.88;86.37;95098.88;4988801;28;20452;-74
2022/02/14 00:43:12;;;;;;;11.65;3.97;;;;;;;-3.93;85.77;95096.09;5007414;28;20069;-74
2022/02/14 00:45:38;;;;;;;8.23;3.63;;;;;;;-3.79;86.66;95087.47;4997747;28;20051;-74
2022/02/14 00:48:05;;;;;;;8.80;3.97;;;;;;;-3.80;84.61;95096.16;5002863;28;20043;-74
2022/02/14 00:50:31;;;;;;;9.02;3.97;;;;;;;-3.77;84.83;95095.78;5015560;28;20516;-73
2022/02/14 00:52:56;;;;;;;7.75;3.55;;;;;;;-3.78;84.79;95093.38;4987557;28;20068;-73
2022/02/14 00:55:22;;;;;;;9.27;3.55;;;;;;;-3.75;84.53;95098.97;4991985;28;20552;-74
2022/02/14 00:57:49;;;;;;;6.78;3.40;;;;;;;-3.89;84.07;95102.44;4992168;28;20420;-74
2022/02/14 01:00:16;;;;;;;10.30;3.40;;;;;;;-4.04;85.21;95099.97;4989156;28;20066;-73
2022/02/14 01:02:42;;;;;;;7.18;3.10;;;;;;;-4.11;85.68;95093.97;4989663;28;20523;-74
2022/02/14 01:05:09;;;;;;;8.57;3.58;;;;;;;-4.10;84.79;95091.22;4987542;28;20046;-75
2022/02/14 01:07:34;;;;;;;8.25;3.20;;;;;;;-4.18;85.35;95088.78;4988394;28;20756;-76
2022/02/14 01:10:00;;;;;;;8.95;3.65;;;;;;;-4.04;84.08;95087.09;4984777;28;20067;-76
2022/02/14 01:12:27;;;;;;;12.50;3.58;;;;;;;-3.93;83.36;95075.53;4979816;28;20093;-76
2022/02/14 01:14:53;;;;;;;9.20;3.42;;;;;;;-3.97;83.04;95074.31;4976565;28;20043;-76
2022/02/14 01:17:19;;;;;;;8.15;3.47;;;;;;;-4.01;82.38;95069.53;4988994;28;20053;-76
2022/02/14 01:19:45;;;;;;;6.30;3.20;;;;;;;-4.16;82.54;95061.13;4984449;28;20035;-77
2022/02/14 01:22:11;;;;;;;5.28;2.78;;;;;;;-4.02;80.04;95057.66;4980173;28;20508;-77
2022/02/14 01:24:37;;;;;;;6.65;2.80;;;;;;;-3.91;78.91;95058.13;4988262;28;20050;-77
2022/02/14 01:27:06;;;;;;;6.55;2.50;;;;;;;-3.91;78.08;95055.53;4988621;28;20066;-77
2022/02/14 01:29:33;;;;;;;3.53;2.10;;;;;;;-3.72;76.19;95052.28;4988155;28;20074;-77
2022/02/14 01:32:00;;;;;;;7.22;2.38;;;;;;;-3.73;77.47;95055.84;4990298;28;20054;-77
2022/02/14 01:34:26;;;;;;;6.60;3.00;;;;;;;-3.91;79.44;95052.97;4992648;28;20117;-78
2022/02/14 01:36:52;;;;;;;6.18;3.20;;;;;;;-4.24;84.13;95053.56;4992438;28;20173;-76
2022/02/14 01:39:18;;;;;;;7.82;3.75;;;;;;;-4.39;84.12;95046.75;4992810;28;20046;-77
2022/02/14 01:41:44;;;;;;;5.90;2.40;;;;;;;-4.38;83.71;95035.50;4992405;28;20112;-78
2022/02/14 01:44:40;;;;;;;6.95;3.15;;;;;;;-4.33;84.84;95041.88;4992952;28;20669;-78
2022/02/14 01:47:12;;;;;;;7.97;3.25;;;;;;;-4.44;85.78;95049.09;4991989;28;20065;-78
2022/02/14 01:49:39;;;;;;;6.90;2.83;;;;;;;-4.48;86.13;95042.75;4995379;28;20053;-77
2022/02/14 01:52:06;;;;;;;9.32;3.72;;;;;;;-4.55;84.87;95039.34;4995487;28;20512;-78
2022/02/14 01:54:34;;;;;;;8.48;3.10;;;;;;;-4.36;84.33;95036.09;4995864;28;20042;-78
2022/02/14 01:57:01;;;;;;;6.55;2.78;;;;;;;-4.08;81.13;95022.44;4992061;28;20121;-77
2022/02/14 01:59:26;;;;;;;12.57;2.72;;;;;;;-3.95;80.14;95018.34;4991985;28;20042;-77
2022/02/14 02:01:52;;;;;;;4.32;2.10;;;;;;;-3.86;78.94;95017.22;4988380;28;20053;-78
2022/02/14 02:04:17;;;;;;;6.03;2.42;;;;;;;-3.81;77.96;95012.28;4976335;28;20047;-78
2022/02/14 02:06:43;;;;;;;3.35;1.80;;;;;;;-3.81;77.71;95007.13;4984587;28;20051;-79
2022/02/14 02:09:10;;;;;;;6.57;2.08;;;;;;;-3.81;76.24;95002.00;4997308;28;20042;-79
2022/02/14 02:14:21;;;;;;;4.40;2.15;;;;;;;-3.62;74.92;95004.84;4997170;28;20515;-79
2022/02/14 02:16:47;;;;;;;6.30;2.10;;;;;;;-3.61;74.00;95004.63;4996933;28;20038;-79
2022/02/14 02:19:13;;;;;;;4.85;1.73;;;;;;;-3.56;74.20;94988.63;4998131;28;20046;-79
2022/02/14 02:21:38;;;;;;;8.63;2.70;;;;;;;-3.85;79.17;94990.50;5004340;28;20038;-79
2022/02/14 02:24:09;;;;;;;4.72;1.98;;;;;;;-4.13;80.65;94988.81;5005384;28;20044;-79
2022/02/14 02:26:34;;;;;;;5.40;2.10;;;;;;;-4.14;82.33;94987.22;5012503;28;20106;-79
2022/02/14 02:29:00;;;;;;;4.65;2.35;;;;;;;-4.18;nan;94986.00;4991218;28;20043;-78
2022/02/14 02:31:26;;;;;;;5.28;2.17;;;;;;;-4.23;82.28;94988.34;5000865;28;20477;-78
2022/02/14 02:33:51;;;;;;;4.20;2.20;;;;;;;-4.16;80.88;94973.78;5006379;28;20045;-78
2022/02/14 02:36:17;;;;;;;3.55;1.80;;;;;;;-4.19;82.43;94971.59;5000884;28;20569;-78
2022/02/14 02:38:42;;;;;;;4.32;2.00;;;;;;;-4.25;83.21;94974.88;4998883;28;20088;-78
2022/02/14 02:41:08;;;;;;;4.82;1.80;;;;;;;-4.26;82.96;94968.19;5002016;28;20158;-78
2022/02/14 02:43:34;;;;;;;3.70;1.90;;;;;;;-4.10;81.21;94962.72;4993223;28;20074;-78
2022/02/14 02:45:59;;;;;;;4.20;1.63;;;;;;;-4.30;82.79;94966.97;4992977;28;20045;-78
2022/02/14 02:48:25;;;;;;;3.72;1.60;;;;;;;-4.39;84.13;94961.97;4992997;28;20448;-78
2022/02/14 02:51:04;;;;;;;3.13;1.63;;;;;;;-4.41;83.24;94971.66;4993708;28;20117;-78
2022/02/14 02:53:31;;;;;;;3.85;1.90;;;;;;;-4.43;84.50;94967.69;4992559;28;20043;-78
2022/02/14 02:55:59;;;;;;;3.08;1.60;;;;;;;-4.44;83.50;94966.91;4993413;28;20044;-78
2022/02/14 02:58:25;;;;;;;3.70;1.60;;;;;;;-4.47;84.17;94957.00;4993971;28;20077;-78
2022/02/14 03:00:51;;;;;;;3.65;1.60;;;;;;;-4.51;85.49;94953.25;4994811;28;21015;-78
2022/02/14 03:03:17;;;;;;;3.15;1.27;;;;;;;-4.51;83.91;94960.94;5002375;28;20046;-79
2022/02/14 03:05:42;;;;;;;4.38;1.90;;;;;;;-4.51;83.97;94966.06;4997874;28;20065;-79
2022/02/14 03:08:08;;;;;;;5.63;1.77;;;;;;;-4.52;85.04;94959.34;4997364;28;20117;-79
2022/02/14 03:10:34;;;;;;;3.85;1.70;;;;;;;-4.55;83.68;94955.38;4997096;28;20046;-79
2022/02/14 03:12:59;;;;;;;3.65;1.50;;;;;;;-4.53;83.67;94957.75;5002709;28;20053;-79
2022/02/14 03:15:26;;;;;;;4.90;2.13;;;;;;;-4.55;84.00;94954.59;5000603;28;20648;-78
2022/02/14 03:17:52;;;;;;;4.72;1.58;;;;;;;-4.57;84.49;94951.41;4996115;28;20066;-79
2022/02/14 03:20:17;;;;;;;3.63;1.70;;;;;;;-4.62;84.67;94948.63;4998651;28;20047;-79
2022/02/14 03:22:43;;;;;;;3.13;1.55;;;;;;;-4.62;85.15;94948.63;5006629;28;20855;-79
2022/02/14 03:25:09;;;;;;;3.30;1.88;;;;;;;-4.48;83.17;94945.16;4985633;28;20098;-79
2022/02/14 03:27:34;;;;;;;5.10;1.60;;;;;;;-4.52;82.95;94943.94;4992825;28;20097;-79
2022/02/14 03:30:00;;;;;;;6.00;1.58;;;;;;;-4.60;84.11;94936.38;4997798;28;20570;-79
2022/02/14 03:32:25;;;;;;;3.63;1.48;;;;;;;-4.53;84.80;94937.22;4998106;28;20097;-79
2022/02/14 03:34:51;;;;;;;4.05;1.52;;;;;;;-4.50;83.16;94941.97;5000145;28;20100;-79
2022/02/14 03:37:16;;;;;;;3.92;1.60;;;;;;;-4.51;84.38;94940.41;5003930;28;20038;-79
2022/02/14 03:39:42;;;;;;;6.15;1.55;;;;;;;-4.59;83.75;94940.53;4996445;28;20042;-79
2022/02/14 03:42:08;;;;;;;5.60;1.65;;;;;;;-4.59;84.62;94938.75;5004829;28;20049;-79
2022/02/14 03:44:34;;;;;;;2.88;1.55;;;;;;;-4.63;83.50;94926.50;4997898;28;20044;-78
2022/02/14 03:46:59;;;;;;;2.63;1.58;;;;;;;-4.67;84.28;94930.41;4996090;28;20047;-79
2022/02/14 03:49:25;;;;;;;2.33;1.45;;;;;;;-4.61;84.44;94922.75;4995625;28;20050;-79
2022/02/14 03:51:51;;;;;;;3.58;1.35;;;;;;;-4.52;85.44;94925.97;4994990;28;20563;-79
2022/02/14 03:54:16;;;;;;;4.28;1.85;;;;;;;-4.52;85.66;94933.66;4994581;28;20038;-79
2022/02/14 03:56:42;;;;;;;2.45;1.48;;;;;;;-4.53;83.75;94926.94;4996787;28;20052;-79
2022/02/14 03:59:08;;;;;;;2.75;1.23;;;;;;;-4.52;84.54;94923.41;5000420;28;20112;-79
2022/02/14 04:01:34;;;;;;;2.90;1.60;;;;;;;-4.50;84.60;94918.84;4996007;28;20532;-78
2022/02/14 04:03:59;;;;;;;6.32;1.67;;;;;;;-4.56;84.17;94922.19;4997842;28;20046;-78
2022/02/14 04:06:25;;;;;;;2.92;1.50;;;;;;;-4.55;83.29;94928.91;4987108;28;20043;-78
2022/02/14 04:08:51;;;;;;;3.90;1.50;;;;;;;-4.59;83.61;94920.00;4993265;28;20043;-79
2022/02/14 04:11:16;;;;;;;3.20;1.50;;;;;;;-4.57;83.87;94920.59;4993233;28;20043;-78
2022/02/14 04:13:42;;;;;;;2.53;1.50;;;;;;;-4.60;83.62;94915.84;4991477;28;20038;-78
2022/02/14 04:16:07;;;;;;;2.15;1.40;;;;;;;-4.59;82.72;94912.28;4993832;28;20475;-78
2022/02/14 04:18:33;;;;;;;2.30;1.38;;;;;;;-4.59;81.80;94907.16;5004307;28;20046;-77
2022/02/14 04:20:58;;;;;;;2.70;1.40;;;;;;;-4.50;82.27;94906.00;4991619;28;20529;-78
2022/02/14 04:23:24;;;;;;;2.17;1.30;;;;;;;-4.38;81.35;94904.50;4998210;28;20050;-77
2022/02/14 04:25:50;;;;;;;2.70;1.30;;;;;;;-4.44;80.90;94905.25;4988415;28;20042;-78
2022/02/14 04:28:16;;;;;;;4.90;1.80;;;;;;;-4.46;81.33;94902.06;4992746;28;20046;-78
2022/02/14 04:30:41;;;;;;;3.45;1.42;;;;;;;-4.44;81.05;94905.25;5002632;28;20046;-78
2022/02/14 04:33:07;;;;;;;2.90;1.55;;;;;;;-4.42;83.05;94898.16;4978438;28;20530;-78
2022/02/14 04:35:33;;;;;;;3.63;1.52;;;;;;;-4.38;80.83;94894.22;4997701;28;20045;-78
2022/02/14 04:37:59;;;;;;;5.72;1.58;;;;;;;-4.36;81.86;94892.25;4991971;28;20058;-79
2022/02/14 04:40:37;;;;;;;4.13;1.40;;;;;;;-4.33;82.37;94885.16;4995668;28;20130;-78
2022/02/14 04:43:03;;;;;;;6.90;1.58;;;;;;;-4.38;82.57;94883.94;4993256;28;20073;-78
2022/02/14 04:45:29;;;;;;;2.15;1.35;;;;;;;-4.25;80.44;94880.63;4995303;28;20795;-79
2022/02/14 04:47:55;;;;;;;3.10;1.50;;;;;;;-4.08;77.52;94868.25;4996845;28;20050;-78
2022/02/14 04:50:21;;;;;;;5.07;1.52;;;;;;;-3.82;72.80;94871.88;4994958;28;20042;-78
2022/02/14 04:52:47;;;;;;;5.95;1.60;;;;;;;-3.65;72.56;94867.13;4994257;28;20066;-79
2022/02/14 04:55:13;;;;;;;2.08;1.10;;;;;;;-3.58;72.80;94867.16;5002136;28;20564;-79
2022/02/14 04:57:39;;;;;;;1.77;1.20;;;;;;;-3.47;70.71;94869.13;5009142;28;20049;-77
2022/02/14 05:00:08;;;;;;;3.28;1.60;;;;;;;-3.53;73.18;94864.78;4993829;28;20416;-77
2022/02/14 05:02:33;;;;;;;2.63;1.40;;;;;;;-3.81;78.60;94865.72;4996174;28;20054;-76
2022/02/14 05:04:59;;;;;;;4.45;2.10;;;;;;;-3.91;80.24;94867.88;4991761;28;20493;-78
2022/02/14 05:07:24;;;;;;;3.88;1.85;;;;;;;-3.91;77.68;94862.75;5006540;28;20424;-78
2022/02/14 05:09:50;;;;;;;2.75;1.52;;;;;;;-3.69;75.02;94861.59;4992416;28;20493;-77
2022/02/14 05:12:15;;;;;;;5.07;1.58;;;;;;;-3.79;79.03;94876.63;4992883;28;20039;-77
2022/02/14 05:14:41;;;;;;;3.67;1.73;;;;;;;-3.87;78.48;94869.88;4998763;28;20045;-77
2022/02/14 05:17:06;;;;;;;4.18;1.70;;;;;;;-3.93;78.29;94875.00;4993934;28;20046;-78
2022/02/14 05:19:32;;;;;;;8.95;1.67;;;;;;;-4.04;78.70;94869.44;5007795;28;20467;-79
2022/02/14 05:21:58;;;;;;;3.08;1.60;;;;;;;-3.99;77.81;94876.56;5002439;28;20050;-79
2022/02/14 05:24:23;;;;;;;13.68;2.10;;;;;;;-3.93;77.74;94869.88;4999582;28;20082;-79
2022/02/14 05:26:49;;;;;;;15.00;2.70;;;;;;;-3.97;78.07;94873.81;4996808;28;20043;-79
2022/02/14 05:29:14;;;;;;;3.75;1.70;;;;;;;-4.04;78.63;94874.59;4995781;28;20093;-79
2022/02/14 05:31:40;;;;;;;9.00;1.80;;;;;;;-4.09;77.89;94866.66;4987975;28;20117;-78
2022/02/14 05:34:06;;;;;;;4.10;1.75;;;;;;;-4.16;78.27;94865.84;4999120;28;20039;-79
2022/02/14 05:36:31;;;;;;;4.32;1.88;;;;;;;-4.17;79.31;94869.38;4998101;28;20035;-78
2022/02/14 05:38:57;;;;;;;3.03;1.35;;;;;;;-4.08;78.05;94873.38;4997680;28;20050;-78
2022/02/14 05:41:23;;;;;;;3.83;1.70;;;;;;;-4.01;76.87;94863.91;4998755;28;20050;-78
2022/02/14 05:43:49;;;;;;;3.45;1.70;;;;;;;-4.13;77.72;94870.59;5006083;28;20142;-80
2022/02/14 05:46:14;;;;;;;3.50;1.50;;;;;;;-4.28;77.84;94867.38;4995993;28;20039;-78
2022/02/14 05:48:45;;;;;;;3.08;1.63;;;;;;;-4.25;78.38;94877.25;4996969;28;20602;-80
2022/02/14 05:51:11;;;;;;;4.80;1.88;;;;;;;-4.18;76.83;94878.06;5008789;28;20690;-79
2022/02/14 05:53:38;;;;;;;3.15;1.75;;;;;;;-4.16;77.89;94876.13;4997547;28;20042;-79
2022/02/14 05:56:06;;;;;;;4.15;1.52;;;;;;;-4.11;77.40;94878.88;4997042;28;20053;-80
2022/02/14 05:58:32;;;;;;;2.42;1.52;;;;;;;-4.10;76.30;94879.69;5008347;28;20133;-78
2022/02/14 06:00:57;;;;;;;5.53;1.85;;;;;;;-4.05;77.66;94870.44;4994119;28;20651;-74
2022/02/14 06:03:23;;;;;;;4.30;1.67;;;;;;;-4.04;76.29;94874.59;4993436;28;20544;-73
2022/02/14 06:05:49;;;;;;;6.00;2.08;;;;;;;-3.98;75.96;94877.34;4991231;28;20077;-76
2022/02/14 06:08:14;;;;;;;4.32;1.83;;;;;;;-3.88;75.27;94872.63;4991834;28;20528;-76
2022/02/14 06:10:40;;;;;;;3.70;1.83;;;;;;;-3.97;76.05;94869.44;5003781;28;20120;-76
2022/02/14 06:13:05;;;;;;;3.45;1.75;;;;;;;-3.97;76.23;94866.09;4990961;28;20408;-76
2022/02/14 06:15:31;;;;;;;6.50;2.17;;;;;;;-4.09;76.28;94876.94;4989307;28;20092;-76
2022/02/14 06:17:56;;;;;;;2.45;1.50;;;;;;;-4.08;76.68;94868.25;4991552;28;20038;-76
2022/02/14 06:20:22;;;;;;;5.97;1.85;;;;;;;-4.05;76.46;94865.28;4993040;28;20743;-76
2022/02/14 06:22:48;;;;;;;7.28;2.17;;;;;;;-4.05;76.72;94873.00;4991106;28;20050;-75
2022/02/14 06:25:13;;;;;;;3.97;1.85;;;;;;;-4.03;77.40;94870.22;4991584;28;20133;-76
2022/02/14 06:27:39;;;;;;;3.88;1.60;;;;;;;-3.96;77.24;94871.03;4991819;28;20504;-76
2022/02/14 06:30:05;;;;;;;10.20;2.00;;;;;;;-3.99;78.74;94861.16;4990104;28;20122;-75
2022/02/14 06:32:32;;;;;;;4.25;2.15;;;;;;;-3.78;78.54;94856.84;4989133;28;20046;-78
2022/02/14 06:34:58;;;;;;;8.18;2.20;;;;;;;-3.59;76.85;94866.38;4993710;28;20472;-78
2022/02/14 06:37:23;;;;;;;7.45;2.00;;;;;;;-3.48;75.93;94862.41;4989604;28;20070;-78
2022/02/14 06:39:49;;;;;;;6.22;2.63;;;;;;;-3.54;76.84;94865.78;4996543;28;20042;-77
2022/02/14 06:42:15;;;;;;;8.30;2.45;;;;;;;-3.64;77.46;94861.00;4992501;28;20050;-78
2022/02/14 06:44:40;;;;;;;8.95;2.50;;;;;;;-3.71;78.19;94871.28;4995568;28;20039;-79
2022/02/14 06:47:06;;;;;;;13.45;2.88;;;;;;;-3.63;78.09;94862.59;4995664;28;20575;-77
2022/02/14 06:49:32;;;;;;;7.05;2.78;;;;;;;-3.67;78.29;94864.75;4991989;28;20046;-78
2022/02/14 06:51:57;;;;;;;14.18;2.63;;;;;;;-3.63;78.17;94869.50;4994643;28;20054;-78
2022/02/14 06:54:23;;;;;;;11.73;2.75;;;;;;;-3.63;78.06;94866.94;4992699;28;20046;-79
2022/02/14 06:56:49;;;;;;;16.17;2.40;;;;;;;-3.67;78.04;94862.19;4992625;28;20042;-79
2022/02/14 06:59:14;;;;;;;7.28;2.60;;;;;;;-3.52;78.34;94861.22;4991591;28;20042;-75
2022/02/14 07:01:40;;;;;;;7.00;3.15;;;;;;;-3.47;77.24;94864.00;4992157;28;20394;-75
2022/02/14 07:04:06;;;;;;;6.72;2.53;;;;;;;-3.46;76.58;94869.91;4991066;28;20493;-76
2022/02/14 07:06:32;;;;;;;6.35;2.88;;;;;;;-3.31;77.34;94857.66;5000880;28;20092;-76
2022/02/14 07:08:57;;;;;;;8.55;2.97;;;;;;;-3.27;77.67;94858.06;4989226;28;20042;-77
2022/02/14 07:11:23;;;;;;;5.78;2.80;;;;;;;-3.19;78.85;94856.09;4991807;28;20057;-76
2022/02/14 07:13:49;;;;;;;9.95;3.63;;;;;;;-3.12;78.56;94858.63;4989196;28;20074;-78
2022/02/14 07:16:15;;;;;;;6.80;2.65;;;;;;;-3.04;78.23;94858.44;5006554;28;20068;-78
2022/02/14 07:18:40;;;;;;;15.30;2.90;;;;;;;-2.96;80.00;94855.66;4978389;28;20043;-77
2022/02/14 07:21:07;;;;;;;15.90;3.63;;;;;;;-2.84;81.66;94855.03;4990945;28;20069;-81
2022/02/14 07:23:32;;;;;;;25.60;3.63;;;;;;;-2.75;81.98;94851.25;5004144;28;20038;-79
2022/02/14 07:25:58;;;;;;;11.02;3.13;;;;;;;-2.65;82.18;94850.84;4987334;28;20093;-80
2022/02/14 07:28:23;;;;;;;9.75;3.30;;;;;;;-2.59;80.42;94855.16;4988011;28;20516;-79
2022/02/14 07:30:49;;;;;;;6.53;2.85;;;;;;;-2.51;80.81;94851.59;4990112;28;20100;-80
2022/02/14 07:33:14;;;;;;;20.17;3.42;;;;;;;-2.46;81.24;94850.00;5010445;28;20046;-79
2022/02/14 07:35:40;;;;;;;8.60;2.88;;;;;;;-2.36;80.44;94844.38;4989745;28;20049;-78
2022/02/14 07:38:06;;;;;;;8.68;2.85;;;;;;;-2.31;80.42;94842.00;4991973;28;20062;-77
2022/02/14 07:40:31;;;;;;;11.85;2.85;;;;;;;-2.30;79.63;94848.75;4974362;28;20043;-78
2022/02/14 07:42:57;;;;;;;16.58;2.92;;;;;;;-2.18;79.46;94850.69;4983309;28;20039;-78
2022/02/14 07:45:26;;;;;;;9.63;3.00;;;;;;;-2.10;79.83;94842.69;4988167;28;20126;-78
2022/02/14 07:47:51;;;;;;;15.63;3.00;;;;;;;-2.04;80.63;94852.19;4991030;28;20061;-79
2022/02/14 07:50:19;;;;;;;13.35;2.58;;;;;;;-2.03;79.85;94848.59;5001717;28;20134;-79
2022/02/14 07:52:45;;;;;;;7.55;2.60;;;;;;;-1.90;80.51;94841.81;4992994;28;20046;-79
2022/02/14 07:55:11;;;;;;;15.13;3.00;;;;;;;-1.85;80.92;94836.78;5002828;28;20038;-79
2022/02/14 07:57:37;;;;;;;10.43;3.17;;;;;;;-1.76;81.71;94835.56;5006895;28;20045;-79
2022/02/14 08:00:04;;;;;;;12.32;2.90;;;;;;;-1.73;81.24;94827.41;4992955;28;20693;-79
2022/02/14 08:02:30;;;;;;;11.20;2.70;;;;;;;-1.59;81.05;94828.88;4999700;28;20052;-80
2022/02/14 08:04:56;;;;;;;9.27;2.65;;;;;;;-1.53;81.12;94826.47;4992585;28;20042;-80
2022/02/14 08:07:22;;;;;;;7.70;2.58;;;;;;;-1.45;82.18;94824.44;4986713;28;20050;-80
2022/02/14 08:09:48;;;;;;;17.45;2.88;;;;;;;-1.36;81.84;94826.75;4990585;28;20133;-80
2022/02/14 08:12:13;;;;;;;8.75;3.05;;;;;;;-1.32;82.27;94823.53;4988298;28;20174;-79
2022/02/14 08:14:41;;;;;;;15.30;3.03;;;;;;;-1.17;81.29;94825.00;4992484;28;20073;-80
2022/02/14 08:17:07;;;;;;;7.18;2.85;;;;;;;-0.99;81.21;94826.81;4993694;28;20042;-80
2022/02/14 08:19:33;;;;;;;13.07;2.70;;;;;;;-0.84;80.65;94829.06;4994723;28;20035;-79
2022/02/14 08:21:59;;;;;;;13.25;3.22;;;;;;;-0.77;80.35;94825.41;4989060;28;20042;-78
2022/02/14 08:24:25;;;;;;;19.35;3.67;;;;;;;-0.69;79.88;94816.56;4988644;28;20077;-79
2022/02/14 08:26:51;;;;;;;23.17;3.70;;;;;;;-0.59;79.11;94824.63;4987603;28;20038;-77
2022/02/14 08:29:17;;;;;;;7.40;3.40;;;;;;;-0.44;77.92;94818.31;4987007;28;20153;-78
2022/02/14 08:31:42;;;;;;;10.77;3.15;;;;;;;-0.38;77.52;94817.44;4992100;28;20037;-76
2022/02/14 08:34:08;;;;;;;12.05;3.33;;;;;;;-0.34;79.22;94813.41;4992118;28;20116;-77
2022/02/14 08:36:34;;;;;;;13.65;3.63;;;;;;;-0.28;79.65;94822.88;4992581;28;20050;-77
2022/02/14 08:39:00;;;;;;;14.00;3.00;;;;;;;-0.16;78.57;94816.97;4990205;28;20045;-76
2022/02/14 08:41:25;;;;;;;30.70;4.13;;;;;;;-0.02;77.45;94810.59;4989469;28;20124;-76
2022/02/14 08:43:51;;;;;;;40.13;4.68;;;;;;;0.02;76.15;94816.94;4994243;28;20134;-76
2022/02/14 08:46:21;;;;;;;35.40;3.75;;;;;;;0.01;75.90;94805.00;4991519;28;20038;-76
2022/02/14 08:48:52;;;;;;;19.30;3.53;;;;;;;0.04;75.13;94804.53;4987724;28;20042;-76
2022/02/14 08:51:18;;;;;;;9.02;2.75;;;;;;;0.21;73.50;94802.13;4991128;28;20051;-76
2022/02/14 08:53:49;;;;;;;9.88;2.40;;;;;;;0.46;72.74;94812.31;4996717;28;20053;-75
2022/02/14 08:56:15;;;;;;;7.70;2.53;;;;;;;0.77;70.52;94805.25;4991725;28;20048;-75
2022/02/14 08:58:45;;;;;;;9.70;2.42;;;;;;;1.16;67.82;94810.75;4988255;28;20100;-74
2022/02/14 09:01:11;;;;;;;10.23;2.15;;;;;;;2.06;55.19;94797.44;4992171;28;20125;-75
2022/02/14 09:03:39;;;;;;;7.60;2.38;;;;;;;3.00;50.17;94790.06;4992771;28;20048;-74
2022/02/14 09:06:06;;;;;;;7.07;2.33;;;;;;;3.50;50.02;94796.97;4991438;28;20035;-75
2022/02/14 09:08:32;;;;;;;6.18;2.08;;;;;;;3.88;45.71;94794.50;4991334;28;20085;-75
2022/02/14 09:11:03;;;;;;;4.05;1.77;;;;;;;4.43;43.20;94792.72;4982433;28;20155;-74
2022/02/14 09:13:31;;;;;;;5.82;1.92;;;;;;;4.43;44.21;94790.09;4992987;28;20050;-75
2022/02/14 09:15:57;;;;;;;13.90;2.08;;;;;;;4.56;41.57;94784.47;4992606;28;20526;-74
2022/02/14 09:18:23;;;;;;;9.20;2.50;;;;;;;4.60;41.37;94795.97;4987737;28;20062;-74
2022/02/14 09:20:48;;;;;;;5.53;2.70;;;;;;;4.64;42.34;94789.25;4991230;28;20050;-74
2022/02/14 09:23:14;;;;;;;5.32;2.85;;;;;;;4.82;40.52;94782.06;4989574;28;20101;-74
2022/02/14 09:25:41;;;;;;;7.50;2.50;;;;;;;4.85;44.23;94786.78;4997412;28;20042;-74
2022/02/14 09:28:07;;;;;;;5.45;2.10;;;;;;;5.26;40.17;94781.81;4992555;28;20039;-74
2022/02/14 09:30:34;;;;;;;7.72;2.17;;;;;;;5.64;39.20;94777.25;4991771;28;20049;-74
2022/02/14 09:33:00;;;;;;;4.82;1.95;;;;;;;5.91;38.79;94768.47;4990541;28;20039;-74
2022/02/14 09:35:26;;;;;;;5.10;2.20;;;;;;;6.13;38.16;94770.13;4991450;28;20436;-75
2022/02/14 09:37:54;;;;;;;6.45;2.35;;;;;;;6.24;38.12;94763.88;4999556;28;20046;-74
2022/02/14 09:40:21;;;;;;;6.47;2.38;;;;;;;6.39;39.47;94761.28;4989982;28;20081;-75
2022/02/14 09:42:47;;;;;;;5.43;1.95;;;;;;;6.58;40.06;94758.16;4983412;28;20042;-77
2022/02/14 09:45:14;;;;;;;5.13;2.38;;;;;;;6.91;37.85;94756.00;4990457;28;20049;-77
2022/02/14 09:47:41;;;;;;;5.03;2.00;;;;;;;7.16;36.11;94764.88;4991313;28;20100;-76
2022/02/14 09:50:09;;;;;;;5.65;2.25;;;;;;;7.23;36.53;94757.53;4991709;28;20129;-76
2022/02/14 09:52:35;;;;;;;11.38;3.13;;;;;;;7.36;35.87;94762.19;4987306;28;20046;-76
2022/02/14 09:55:01;;;;;;;5.25;2.75;;;;;;;7.46;37.88;94756.91;4992509;28;20038;-77
2022/02/14 09:57:27;;;;;;;5.53;2.22;;;;;;;7.53;38.05;94750.59;4992594;28;20042;-76
2022/02/14 09:59:54;;;;;;;6.45;2.20;;;;;;;7.42;39.57;94752.47;4991494;28;20051;-76
2022/02/14 10:02:25;;;;;;;6.03;2.10;;;;;;;7.68;37.80;94753.16;4990644;28;20035;-75
2022/02/14 10:05:13;;;;;;;6.97;2.10;;;;;;;7.87;39.62;94766.41;4993554;28;20042;-75
2022/02/14 10:07:50;;;;;;;6.05;1.95;;;;;;;8.68;33.23;94747.84;4994280;28;20049;-76
2022/02/14 10:10:21;;;;;;;7.47;2.03;;;;;;;9.66;32.80;94757.34;4989927;28;20046;-76
2022/02/14 10:12:49;;;;;;;9.30;1.95;;;;;;;10.31;33.68;94753.31;4989527;28;20031;-75
2022/02/14 10:15:16;;;;;;;4.82;2.10;;;;;;;11.94;29.53;94743.63;4989384;28;20065;-75
2022/02/14 10:17:51;;;;;;;5.32;2.10;;;;;;;12.84;28.58;94736.84;5001080;28;20034;-77
2022/02/14 10:20:22;;;;;;;11.35;2.20;;;;;;;11.55;29.81;94737.03;4991747;28;20084;-75
2022/02/14 10:23:03;;;;;;;8.18;2.30;;;;;;;11.06;29.66;94743.72;4998537;28;20050;-78
2022/02/14 10:25:34;;;;;;;3.72;1.90;;;;;;;11.28;30.85;94737.81;4988978;28;20055;-76
2022/02/14 10:28:20;;;;;;;5.13;1.95;;;;;;;11.05;30.81;94739.53;4989472;28;20039;-76
2022/02/14 10:31:02;;;;;;;5.90;2.33;;;;;;;10.70;31.70;94737.22;4984337;28;20043;-76
2022/02/14 10:33:55;;;;;;;5.53;2.40;;;;;;;10.56;30.52;94729.28;5003904;28;20546;-76
2022/02/14 10:36:29;;;;;;;7.20;2.42;;;;;;;10.49;32.26;94742.03;4984844;28;20563;-76
2022/02/14 10:38:57;;;;;;;8.75;2.47;;;;;;;10.79;34.21;94732.09;4991181;28;20034;-75
2022/02/14 10:41:26;;;;;;;8.43;2.10;;;;;;;10.44;35.71;94726.31;4990647;28;20117;-77
2022/02/14 10:43:51;;;;;;;5.70;2.03;;;;;;;10.68;32.78;94733.31;4988064;28;20035;-76
2022/02/14 10:46:19;;;;;;;6.57;2.20;;;;;;;10.64;32.80;94732.34;4990116;28;20042;-74
2022/02/14 10:48:45;;;;;;;5.70;2.65;;;;;;;10.69;33.70;94727.00;4991776;28;20045;-79
2022/02/14 10:51:18;;;;;;;9.05;2.30;;;;;;;10.89;32.40;94726.63;4992818;28;20042;-73
2022/02/14 10:53:46;;;;;;;27.23;2.80;;;;;;;10.83;34.64;94721.75;4992890;28;20454;-75
2022/02/14 10:56:14;;;;;;;8.48;2.20;;;;;;;12.94;31.21;94720.75;4993538;28;20039;-77
2022/02/14 10:58:41;;;;;;;7.82;2.00;;;;;;;12.40;30.57;94717.31;4989685;28;20034;-74
2022/02/14 11:01:15;;;;;;;6.88;2.20;;;;;;;12.07;29.80;94707.00;4986156;28;20051;-73
2022/02/14 11:03:42;;;;;;;6.13;1.90;;;;;;;11.46;32.16;94707.16;4988491;28;20038;-74
2022/02/14 11:06:09;;;;;;;5.72;2.03;;;;;;;10.99;34.72;94709.09;4990281;28;20053;-77
2022/02/14 11:08:36;;;;;;;4.20;2.00;;;;;;;11.13;31.96;94709.13;4988174;28;20038;-74
2022/02/14 11:11:04;;;;;;;5.97;2.25;;;;;;;11.62;31.57;94699.72;4990000;28;20061;-72
2022/02/14 11:13:31;;;;;;;7.13;2.15;;;;;;;11.26;35.33;94698.59;4991157;28;20050;-75
2022/02/14 11:16:02;;;;;;;3.83;1.90;;;;;;;11.89;30.73;94704.16;4993384;28;20042;-75
2022/02/14 11:18:37;;;;;;;6.22;2.00;;;;;;;11.67;33.02;94688.31;4982886;28;20047;-76
2022/02/14 11:21:03;;;;;;;10.07;3.70;;;;;;;14.69;31.59;94684.00;4985929;28;20052;-72
2022/02/14 11:23:34;;;;;;;5.93;2.30;;;;;;;16.52;28.76;94677.97;4990496;28;20432;-75
2022/02/14 11:26:17;;;;;;;8.30;2.42;;;;;;;17.66;26.81;94680.13;4996080;28;20062;-75
2022/02/14 11:29:08;;;;;;;6.32;2.17;;;;;;;18.10;22.43;94672.31;4981134;28;20050;-75
2022/02/14 11:31:35;;;;;;;6.18;1.90;;;;;;;16.74;23.14;94669.63;4979439;28;20055;-76
2022/02/14 11:34:03;;;;;;;4.97;1.90;;;;;;;18.90;22.41;94663.75;4990283;28;20096;-76
2022/02/14 11:36:34;;;;;;;5.45;1.73;;;;;;;18.74;23.18;94656.47;4987192;28;20181;-75